Time;durP1;ratioP1;P1;durP2;ratioP2;P2;SDS_P1;SDS_P2;PMS_P1;PMS_P2;Temp;Humidity;BMP_temperature;BMP_pressure;BME280_temperature;BME280_humidity;BME280_pressure;Samples;Min_cycle;Max_cycle;Signal;HPM_P1;HPM_P2
2019/09/25 00:00:41;;;;;;;1.14;1.10;;;;;;;20.60;53.76;99728.30;;;;-48
2019/09/25 00:03:41;;;;;;;1.53;1.31;;;;;;;20.61;53.78;99730.08;;;;-48
2019/09/25 00:06:40;;;;;;;1.27;1.20;;;;;;;20.60;53.76;99734.92;;;;-48
2019/09/25 00:09:41;;;;;;;1.39;1.20;;;;;;;20.59;53.77;99732.80;;;;-48
2019/09/25 00:12:40;;;;;;;1.40;1.19;;;;;;;20.59;53.78;99734.82;;;;-48
2019/09/25 00:15:40;;;;;;;1.16;1.11;;;;;;;20.59;53.76;99732.64;;;;-48
2019/09/25 00:18:41;;;;;;;1.30;1.20;;;;;;;20.59;53.77;99733.14;;;;-48
2019/09/25 00:21:41;;;;;;;1.10;1.10;;;;;;;20.59;53.77;99739.45;;;;-48
2019/09/25 00:24:41;;;;;;;1.26;1.17;;;;;;;20.59;53.83;99737.84;;;;-48
2019/09/25 00:27:40;;;;;;;1.13;1.13;;;;;;;20.58;53.78;99743.28;;;;-48
2019/09/25 00:30:40;;;;;;;1.23;1.17;;;;;;;20.58;53.76;99737.98;;;;-48
2019/09/25 00:33:40;;;;;;;1.29;1.19;;;;;;;20.58;53.77;99738.08;;;;-48
2019/09/25 00:36:40;;;;;;;1.27;1.20;;;;;;;20.58;53.83;99741.00;;;;-48
2019/09/25 00:39:40;;;;;;;1.25;1.20;;;;;;;20.59;53.82;99741.20;;;;-48
2019/09/25 00:42:40;;;;;;;1.12;1.10;;;;;;;20.57;53.79;99736.55;;;;-48
2019/09/25 00:45:40;;;;;;;1.35;1.25;;;;;;;20.57;53.79;99737.72;;;;-48
2019/09/25 00:48:40;;;;;;;1.42;1.30;;;;;;;20.57;53.78;99734.77;;;;-47
2019/09/25 00:51:40;;;;;;;2.45;1.20;;;;;;;20.57;53.79;99736.88;;;;-47
2019/09/25 00:54:40;;;;;;;1.35;1.25;;;;;;;20.56;53.82;99735.58;;;;-48
2019/09/25 00:57:40;;;;;;;1.29;1.19;;;;;;;20.56;53.85;99735.00;;;;-48
2019/09/25 01:00:41;;;;;;;1.31;1.20;;;;;;;20.56;53.82;99730.20;;;;-48
2019/09/25 01:03:40;;;;;;;1.31;1.21;;;;;;;20.56;53.82;99723.66;;;;-48
2019/09/25 01:06:40;;;;;;;1.30;1.20;;;;;;;20.56;53.79;99726.18;;;;-47
2019/09/25 01:09:40;;;;;;;1.24;1.14;;;;;;;20.56;53.79;99723.33;;;;-48
2019/09/25 01:12:40;;;;;;;1.49;1.37;;;;;;;20.55;53.80;99723.13;;;;-48
2019/09/25 01:15:41;;;;;;;1.37;1.27;;;;;;;20.56;53.77;99719.54;;;;-48
2019/09/25 01:18:40;;;;;;;1.11;1.11;;;;;;;20.54;53.81;99718.00;;;;-48
2019/09/25 01:21:40;;;;;;;1.29;1.19;;;;;;;20.55;53.80;99722.80;;;;-48
2019/09/25 01:24:40;;;;;;;1.29;1.19;;;;;;;20.55;53.81;99720.05;;;;-48
2019/09/25 01:27:40;;;;;;;1.24;1.11;;;;;;;20.54;53.81;99713.23;;;;-48
2019/09/25 01:30:40;;;;;;;1.15;1.09;;;;;;;20.54;53.79;99711.06;;;;-48
2019/09/25 01:33:40;;;;;;;1.29;1.19;;;;;;;20.55;53.79;99710.48;;;;-48
2019/09/25 01:36:41;;;;;;;1.04;1.04;;;;;;;20.54;53.77;99705.39;;;;-48
2019/09/25 01:39:40;;;;;;;1.03;1.03;;;;;;;20.54;53.77;99708.61;;;;-48
2019/09/25 01:42:40;;;;;;;1.30;1.20;;;;;;;20.54;53.79;99713.14;;;;-48
2019/09/25 01:45:40;;;;;;;1.27;1.17;;;;;;;20.54;53.77;99715.89;;;;-48
2019/09/25 01:48:40;;;;;;;1.25;1.17;;;;;;;20.53;53.79;99719.92;;;;-48
2019/09/25 01:51:40;;;;;;;1.20;1.10;;;;;;;20.53;53.78;99721.16;;;;-48
2019/09/25 01:54:40;;;;;;;1.30;1.20;;;;;;;20.54;53.79;99724.68;;;;-48
2019/09/25 01:57:40;;;;;;;1.17;1.17;;;;;;;20.53;53.77;99725.69;;;;-48
2019/09/25 02:00:40;;;;;;;1.21;1.18;;;;;;;20.53;53.77;99721.50;;;;-48
2019/09/25 02:03:40;;;;;;;1.17;1.17;;;;;;;20.53;53.82;99717.71;;;;-48
2019/09/25 02:06:40;;;;;;;1.11;1.10;;;;;;;20.52;53.78;99718.88;;;;-48
2019/09/25 02:09:40;;;;;;;1.25;1.15;;;;;;;20.52;53.79;99721.13;;;;-48
2019/09/25 02:12:40;;;;;;;1.09;1.09;;;;;;;20.52;53.77;99725.59;;;;-48
2019/09/25 02:15:40;;;;;;;1.07;1.06;;;;;;;20.53;53.79;99736.66;;;;-48
2019/09/25 02:18:40;;;;;;;1.31;1.20;;;;;;;20.52;53.75;99734.98;;;;-48
2019/09/25 02:21:40;;;;;;;1.15;1.10;;;;;;;20.52;53.77;99735.22;;;;-48
2019/09/25 02:24:40;;;;;;;1.06;1.03;;;;;;;20.52;53.77;99737.88;;;;-48
2019/09/25 02:27:40;;;;;;;1.11;1.10;;;;;;;20.51;53.74;99740.50;;;;-48
2019/09/25 02:30:40;;;;;;;1.20;1.10;;;;;;;20.51;53.77;99746.27;;;;-48
2019/09/25 02:33:40;;;;;;;1.25;1.11;;;;;;;20.52;53.74;99754.25;;;;-48
2019/09/25 02:36:40;;;;;;;1.10;1.10;;;;;;;20.52;53.74;99752.84;;;;-48
2019/09/25 02:39:40;;;;;;;1.21;1.10;;;;;;;20.51;53.74;99751.73;;;;-48
2019/09/25 02:42:40;;;;;;;1.06;1.05;;;;;;;20.52;53.73;99746.03;;;;-48
2019/09/25 02:45:40;;;;;;;1.21;1.11;;;;;;;20.50;53.73;99746.84;;;;-48
2019/09/25 02:48:41;;;;;;;1.21;1.11;;;;;;;20.51;53.75;99748.78;;;;-48
2019/09/25 02:51:41;;;;;;;1.14;1.12;;;;;;;20.50;53.74;99749.19;;;;-48
2019/09/25 02:54:40;;;;;;;1.10;1.09;;;;;;;20.50;53.78;99754.39;;;;-48
2019/09/25 02:57:40;;;;;;;1.03;1.03;;;;;;;20.50;53.72;99762.61;;;;-47
2019/09/25 03:00:40;;;;;;;1.19;1.14;;;;;;;20.50;53.75;99762.58;;;;-48
2019/09/25 03:03:40;;;;;;;1.23;1.10;;;;;;;20.50;53.73;99759.05;;;;-48
2019/09/25 03:06:40;;;;;;;1.26;1.16;;;;;;;20.49;53.72;99766.44;;;;-48
2019/09/25 03:09:41;;;;;;;1.51;1.25;;;;;;;20.50;53.70;99770.13;;;;-48
2019/09/25 03:12:40;;;;;;;0.99;0.99;;;;;;;20.49;53.71;99766.44;;;;-48
2019/09/25 03:15:40;;;;;;;1.29;1.20;;;;;;;20.50;53.72;99774.89;;;;-48
2019/09/25 03:18:40;;;;;;;1.20;1.10;;;;;;;20.50;53.75;99775.22;;;;-48
2019/09/25 03:21:40;;;;;;;1.21;1.11;;;;;;;20.49;53.78;99772.95;;;;-48
2019/09/25 03:24:40;;;;;;;1.43;1.11;;;;;;;20.49;53.74;99778.92;;;;-48
2019/09/25 03:27:40;;;;;;;1.05;1.05;;;;;;;20.49;53.78;99780.93;;;;-48
2019/09/25 03:30:40;;;;;;;1.32;1.13;;;;;;;20.49;53.75;99781.91;;;;-48
2019/09/25 03:33:40;;;;;;;1.15;1.10;;;;;;;20.49;53.75;99782.70;;;;-48
2019/09/25 03:36:40;;;;;;;1.09;1.09;;;;;;;20.48;53.75;99782.67;;;;-48
2019/09/25 03:39:40;;;;;;;1.21;1.15;;;;;;;20.48;53.75;99782.84;;;;-48
2019/09/25 03:42:40;;;;;;;1.28;1.18;;;;;;;20.48;53.78;99780.66;;;;-48
2019/09/25 03:45:40;;;;;;;1.10;1.10;;;;;;;20.48;53.73;99777.81;;;;-48
2019/09/25 03:48:40;;;;;;;1.13;1.10;;;;;;;20.48;53.72;99778.02;;;;-48
2019/09/25 03:51:40;;;;;;;1.01;1.01;;;;;;;20.48;53.68;99778.72;;;;-48
2019/09/25 03:54:40;;;;;;;0.96;0.96;;;;;;;20.47;53.73;99782.48;;;;-48
2019/09/25 03:57:40;;;;;;;1.21;1.11;;;;;;;20.48;53.72;99778.35;;;;-48
2019/09/25 04:03:40;;;;;;;1.21;1.11;;;;;;;20.48;53.67;99774.53;;;;-48
2019/09/25 04:06:40;;;;;;;1.09;1.09;;;;;;;20.48;53.71;99774.42;;;;-47
2019/09/25 04:09:40;;;;;;;1.01;1.01;;;;;;;20.47;53.72;99771.98;;;;-48
2019/09/25 04:12:40;;;;;;;1.00;1.00;;;;;;;20.47;53.73;99772.89;;;;-48
2019/09/25 04:15:40;;;;;;;1.00;1.00;;;;;;;20.47;53.75;99777.75;;;;-48
2019/09/25 04:18:40;;;;;;;1.23;1.13;;;;;;;20.47;53.77;99779.59;;;;-48
2019/09/25 04:21:41;;;;;;;1.23;1.13;;;;;;;20.47;53.75;99779.26;;;;-48
2019/09/25 04:24:40;;;;;;;1.11;1.10;;;;;;;20.47;53.74;99782.22;;;;-48
2019/09/25 04:27:40;;;;;;;1.16;1.10;;;;;;;20.46;53.74;99781.84;;;;-48
2019/09/25 04:30:40;;;;;;;1.21;1.07;;;;;;;20.47;53.72;99784.06;;;;-48
2019/09/25 04:33:40;;;;;;;1.04;1.04;;;;;;;20.46;53.72;99785.53;;;;-48
2019/09/25 04:36:40;;;;;;;1.11;1.07;;;;;;;20.47;53.75;99789.33;;;;-48
2019/09/25 04:39:40;;;;;;;1.00;1.00;;;;;;;20.46;53.71;99795.09;;;;-50
2019/09/25 04:42:40;;;;;;;1.15;1.10;;;;;;;20.46;53.71;99793.83;;;;-50
2019/09/25 04:45:40;;;;;;;1.02;1.02;;;;;;;20.46;53.73;99798.12;;;;-50
2019/09/25 04:48:40;;;;;;;0.97;0.97;;;;;;;20.46;53.71;99799.86;;;;-50
2019/09/25 04:51:40;;;;;;;1.00;1.00;;;;;;;20.46;53.72;99800.87;;;;-50
2019/09/25 04:54:40;;;;;;;1.00;1.00;;;;;;;20.45;53.70;99799.26;;;;-50
2019/09/25 04:57:40;;;;;;;1.13;1.08;;;;;;;20.46;53.65;99804.83;;;;-50
2019/09/25 05:00:40;;;;;;;1.27;1.17;;;;;;;20.45;53.71;99797.85;;;;-50
2019/09/25 05:03:40;;;;;;;1.05;1.05;;;;;;;20.45;53.69;99793.05;;;;-50
2019/09/25 05:06:40;;;;;;;1.18;1.15;;;;;;;20.44;53.73;99791.34;;;;-50
2019/09/25 05:09:40;;;;;;;1.05;1.05;;;;;;;20.45;53.71;99794.80;;;;-50
2019/09/25 05:12:40;;;;;;;1.00;1.00;;;;;;;20.45;53.72;99794.40;;;;-50
2019/09/25 05:15:40;;;;;;;1.27;1.17;;;;;;;20.44;53.72;99796.78;;;;-50
2019/09/25 05:18:40;;;;;;;1.20;1.10;;;;;;;20.45;53.70;99796.14;;;;-50
2019/09/25 05:21:40;;;;;;;1.14;1.10;;;;;;;20.45;53.71;99799.83;;;;-50
2019/09/25 05:24:40;;;;;;;1.01;1.01;;;;;;;20.44;53.69;99800.84;;;;-50
2019/09/25 05:27:40;;;;;;;1.10;1.10;;;;;;;20.44;53.74;99802.98;;;;-50
2019/09/25 05:30:40;;;;;;;1.09;1.03;;;;;;;20.44;53.71;99803.09;;;;-50
2019/09/25 05:33:40;;;;;;;1.09;1.06;;;;;;;20.45;53.72;99807.65;;;;-50
2019/09/25 05:36:40;;;;;;;1.00;1.00;;;;;;;20.44;53.71;99809.19;;;;-50
2019/09/25 05:39:40;;;;;;;1.10;1.00;;;;;;;20.44;53.71;99815.16;;;;-50
2019/09/25 05:42:40;;;;;;;0.95;0.95;;;;;;;20.44;53.76;99819.36;;;;-50
2019/09/25 05:45:40;;;;;;;1.23;1.10;;;;;;;20.43;53.70;99822.69;;;;-50
2019/09/25 05:48:40;;;;;;;1.32;1.12;;;;;;;20.44;53.70;99823.62;;;;-49
2019/09/25 05:51:40;;;;;;;0.96;0.96;;;;;;;20.44;53.69;99824.66;;;;-49
2019/09/25 05:54:40;;;;;;;1.15;1.09;;;;;;;20.44;53.69;99826.50;;;;-50
2019/09/25 05:57:40;;;;;;;1.19;1.10;;;;;;;20.44;53.72;99831.16;;;;-50
2019/09/25 06:00:40;;;;;;;1.16;1.10;;;;;;;20.44;53.67;99828.58;;;;-50
2019/09/25 06:03:40;;;;;;;1.30;1.20;;;;;;;20.43;53.69;99824.45;;;;-50
2019/09/25 06:06:40;;;;;;;1.19;1.15;;;;;;;20.44;53.73;99825.90;;;;-50
2019/09/25 06:09:40;;;;;;;1.00;1.00;;;;;;;20.43;53.69;99828.98;;;;-50
2019/09/25 06:12:40;;;;;;;1.11;1.10;;;;;;;20.43;53.69;99827.04;;;;-49
2019/09/25 06:15:40;;;;;;;1.09;1.05;;;;;;;20.44;53.71;99830.83;;;;-49
2019/09/25 06:18:40;;;;;;;1.13;1.10;;;;;;;20.43;53.69;99832.81;;;;-50
2019/09/25 06:21:40;;;;;;;1.12;1.11;;;;;;;20.44;53.68;99838.55;;;;-50
2019/09/25 06:24:40;;;;;;;1.00;1.00;;;;;;;20.43;53.69;99838.28;;;;-50
2019/09/25 06:27:40;;;;;;;1.08;1.08;;;;;;;20.43;53.70;99835.09;;;;-50
2019/09/25 06:30:40;;;;;;;1.00;1.00;;;;;;;20.43;53.70;99839.02;;;;-50
2019/09/25 06:34:40;;;;;;;1.15;1.10;;;;;;;20.43;53.67;99839.45;;;;-50
2019/09/25 06:37:40;;;;;;;1.02;1.02;;;;;;;20.43;53.73;99845.22;;;;-50
2019/09/25 06:40:40;;;;;;;1.20;1.11;;;;;;;20.42;53.69;99848.58;;;;-60
2019/09/25 06:43:40;;;;;;;1.10;1.02;;;;;;;20.43;53.72;99854.95;;;;-59
2019/09/25 06:46:40;;;;;;;1.06;1.05;;;;;;;20.41;53.72;99861.63;;;;-58
2019/09/25 06:49:40;;;;;;;1.03;1.03;;;;;;;20.42;53.70;99863.50;;;;-60
2019/09/25 06:52:40;;;;;;;1.10;1.10;;;;;;;20.42;53.69;99867.27;;;;-60
2019/09/25 06:55:40;;;;;;;0.95;0.95;;;;;;;20.42;53.71;99868.27;;;;-60
2019/09/25 06:58:40;;;;;;;1.07;1.06;;;;;;;20.42;53.71;99870.95;;;;-60
2019/09/25 07:01:40;;;;;;;1.00;1.00;;;;;;;20.42;53.73;99874.64;;;;-58
2019/09/25 07:04:40;;;;;;;1.19;1.09;;;;;;;20.42;53.72;99884.03;;;;-60
2019/09/25 07:07:41;;;;;;;1.71;1.20;;;;;;;20.42;53.70;99887.39;;;;-59
2019/09/25 07:10:40;;;;;;;1.19;1.09;;;;;;;20.42;53.72;99893.77;;;;-61
2019/09/25 07:13:40;;;;;;;0.99;0.99;;;;;;;20.41;53.72;99887.26;;;;-60
2019/09/25 07:16:40;;;;;;;1.11;1.10;;;;;;;20.42;53.75;99891.58;;;;-59
2019/09/25 07:19:40;;;;;;;6.61;1.60;;;;;;;20.41;54.55;99892.99;;;;-57
2019/09/25 07:22:41;;;;;;;5.67;1.33;;;;;;;20.44;54.35;99898.92;;;;-56
2019/09/25 07:25:40;;;;;;;4.82;1.27;;;;;;;20.47;54.47;99894.92;;;;-59
2019/09/25 07:28:40;;;;;;;1.57;1.29;;;;;;;20.51;54.44;99900.25;;;;-53
2019/09/25 07:31:40;;;;;;;1.62;1.27;;;;;;;20.53;54.43;99900.75;;;;-55
2019/09/25 07:34:40;;;;;;;2.29;1.20;;;;;;;20.55;54.57;99901.28;;;;-58
2019/09/25 07:37:40;;;;;;;2.05;1.35;;;;;;;20.59;54.36;99906.17;;;;-62
2019/09/25 07:40:40;;;;;;;2.94;1.36;;;;;;;20.61;54.88;99907.91;;;;-59
2019/09/25 07:43:40;;;;;;;1.69;1.37;;;;;;;20.61;54.64;99903.14;;;;-56
2019/09/25 07:46:40;;;;;;;1.58;1.27;;;;;;;20.64;54.58;99908.94;;;;-57
2019/09/25 07:49:40;;;;;;;1.61;1.23;;;;;;;20.63;54.57;99911.59;;;;-57
2019/09/25 07:52:40;;;;;;;1.65;1.36;;;;;;;20.64;54.57;99910.19;;;;-57
2019/09/25 07:55:40;;;;;;;2.39;1.38;;;;;;;20.63;54.57;99915.52;;;;-57
2019/09/25 07:58:40;;;;;;;2.63;1.26;;;;;;;20.64;54.33;99914.05;;;;-57
2019/09/25 08:01:40;;;;;;;2.09;1.35;;;;;;;20.64;54.34;99915.32;;;;-57
2019/09/25 08:04:40;;;;;;;2.14;1.23;;;;;;;20.62;54.38;99913.41;;;;-57
2019/09/25 08:07:40;;;;;;;1.80;1.30;;;;;;;20.63;54.32;99914.02;;;;-56
2019/09/25 08:10:40;;;;;;;2.36;1.41;;;;;;;20.64;54.22;99914.72;;;;-56
2019/09/25 08:13:40;;;;;;;1.72;1.34;;;;;;;20.64;54.24;99916.73;;;;-57
2019/09/25 08:16:40;;;;;;;2.06;1.40;;;;;;;20.62;54.15;99918.55;;;;-49
2019/09/25 08:19:40;;;;;;;1.59;1.27;;;;;;;20.63;54.13;99918.98;;;;-49
2019/09/25 08:22:40;;;;;;;1.45;1.21;;;;;;;20.64;54.00;99915.98;;;;-49
2019/09/25 08:25:40;;;;;;;3.06;1.26;;;;;;;20.63;54.04;99919.31;;;;-51
2019/09/25 08:28:40;;;;;;;1.65;1.30;;;;;;;20.64;54.27;99919.34;;;;-51
2019/09/25 08:31:40;;;;;;;1.87;1.45;;;;;;;20.65;54.30;99920.95;;;;-51
2019/09/25 08:34:40;;;;;;;1.97;1.41;;;;;;;20.67;54.27;99927.49;;;;-52
2019/09/25 08:37:40;;;;;;;1.90;1.30;;;;;;;20.68;54.33;99928.36;;;;-51
2019/09/25 08:40:40;;;;;;;2.39;1.25;;;;;;;20.69;54.33;99928.73;;;;-52
2019/09/25 08:43:41;;;;;;;3.35;1.20;;;;;;;20.71;54.36;99928.12;;;;-52
2019/09/25 08:46:40;;;;;;;1.98;1.22;;;;;;;20.73;54.30;99926.91;;;;-52
2019/09/25 08:49:40;;;;;;;1.66;1.21;;;;;;;20.73;54.28;99921.54;;;;-52
2019/09/25 08:52:40;;;;;;;2.56;1.29;;;;;;;20.74;54.34;99924.52;;;;-51
2019/09/25 08:55:40;;;;;;;1.90;1.39;;;;;;;20.75;54.27;99919.92;;;;-48
2019/09/25 08:58:40;;;;;;;1.83;1.17;;;;;;;20.76;54.38;99921.47;;;;-51
2019/09/25 09:01:40;;;;;;;1.34;1.23;;;;;;;20.77;54.37;99917.91;;;;-50
2019/09/25 09:04:40;;;;;;;3.04;1.32;;;;;;;20.78;54.26;99922.80;;;;-52
2019/09/25 09:07:40;;;;;;;1.68;1.32;;;;;;;20.78;54.26;99919.51;;;;-53
2019/09/25 09:10:40;;;;;;;1.54;1.30;;;;;;;20.80;54.33;99926.05;;;;-54
2019/09/25 09:13:40;;;;;;;2.05;1.21;;;;;;;20.79;54.37;99924.17;;;;-50
2019/09/25 09:16:40;;;;;;;4.00;1.40;;;;;;;20.80;54.29;99924.73;;;;-52
2019/09/25 09:19:40;;;;;;;3.27;1.30;;;;;;;20.81;54.42;99922.09;;;;-50
2019/09/25 09:22:40;;;;;;;3.27;1.30;;;;;;;20.83;54.39;99925.13;;;;-56
2019/09/25 09:25:40;;;;;;;1.74;1.35;;;;;;;20.83;54.24;99928.19;;;;-53
2019/09/25 09:28:40;;;;;;;2.63;1.20;;;;;;;20.83;54.43;99920.50;;;;-49
2019/09/25 09:31:40;;;;;;;2.09;1.42;;;;;;;20.85;54.49;99922.24;;;;-53
2019/09/25 09:34:40;;;;;;;2.77;1.35;;;;;;;20.84;54.38;99915.86;;;;-51
2019/09/25 09:37:41;;;;;;;3.36;1.38;;;;;;;20.85;54.52;99917.30;;;;-55
2019/09/25 09:40:40;;;;;;;2.91;1.31;;;;;;;20.85;54.42;99922.54;;;;-49
2019/09/25 09:43:40;;;;;;;2.79;1.52;;;;;;;20.87;54.42;99927.03;;;;-49
2019/09/25 09:46:40;;;;;;;2.73;1.47;;;;;;;20.88;54.43;99922.33;;;;-51
2019/09/25 09:49:40;;;;;;;2.07;1.39;;;;;;;20.87;54.37;99922.40;;;;-51
2019/09/25 09:52:40;;;;;;;2.62;1.35;;;;;;;20.89;54.31;99920.02;;;;-52
2019/09/25 09:55:40;;;;;;;1.55;1.31;;;;;;;20.89;54.39;99915.75;;;;-50
2019/09/25 09:58:40;;;;;;;2.84;1.52;;;;;;;20.90;54.27;99908.83;;;;-54
2019/09/25 10:01:40;;;;;;;2.00;1.35;;;;;;;20.91;54.42;99912.05;;;;-51
2019/09/25 10:04:40;;;;;;;2.15;1.19;;;;;;;20.90;54.38;99913.59;;;;-53
2019/09/25 10:07:40;;;;;;;2.85;1.44;;;;;;;20.92;54.36;99908.28;;;;-52
2019/09/25 10:10:40;;;;;;;2.03;1.33;;;;;;;20.92;54.38;99905.87;;;;-51
2019/09/25 10:13:40;;;;;;;2.09;1.21;;;;;;;20.93;54.35;99898.98;;;;-50
2019/09/25 10:16:40;;;;;;;6.09;1.70;;;;;;;20.93;54.46;99898.41;;;;-57
2019/09/25 10:19:40;;;;;;;2.98;1.32;;;;;;;20.93;54.44;99897.23;;;;-51
2019/09/25 10:22:40;;;;;;;4.21;1.32;;;;;;;20.93;54.41;99892.80;;;;-51
2019/09/25 10:25:40;;;;;;;4.35;1.30;;;;;;;20.93;54.41;99892.38;;;;-52
2019/09/25 10:28:40;;;;;;;3.85;1.39;;;;;;;20.93;54.46;99897.41;;;;-50
2019/09/25 10:31:40;;;;;;;2.41;1.35;;;;;;;20.94;54.46;99899.11;;;;-54
2019/09/25 10:34:40;;;;;;;5.17;1.39;;;;;;;20.95;54.41;99904.78;;;;-51
2019/09/25 10:37:40;;;;;;;1.93;1.13;;;;;;;20.95;54.34;99906.36;;;;-53
2019/09/25 10:40:40;;;;;;;2.09;1.35;;;;;;;20.95;54.31;99906.86;;;;-49
2019/09/25 10:43:40;;;;;;;3.56;1.20;;;;;;;20.94;54.18;99901.73;;;;-50
2019/09/25 10:46:40;;;;;;;2.94;1.21;;;;;;;20.93;54.24;99898.41;;;;-49
2019/09/25 10:49:40;;;;;;;5.27;1.43;;;;;;;20.93;54.33;99899.59;;;;-48
2019/09/25 10:52:40;;;;;;;9.05;1.71;;;;;;;20.94;54.28;99898.44;;;;-48
2019/09/25 10:55:40;;;;;;;3.76;1.49;;;;;;;20.94;54.23;99894.68;;;;-47
2019/09/25 10:58:40;;;;;;;5.09;1.47;;;;;;;20.94;54.44;99893.84;;;;-47
2019/09/25 11:01:40;;;;;;;7.84;1.77;;;;;;;20.96;54.27;99896.98;;;;-61
2019/09/25 11:04:40;;;;;;;6.29;1.57;;;;;;;20.97;54.28;99890.88;;;;-60
2019/09/25 11:07:41;;;;;;;3.95;1.41;;;;;;;20.97;54.36;99889.13;;;;-46
2019/09/25 11:10:40;;;;;;;4.13;1.46;;;;;;;20.95;54.37;99887.16;;;;-46
2019/09/25 11:13:40;;;;;;;4.20;1.52;;;;;;;20.95;54.28;99885.88;;;;-46
2019/09/25 11:16:40;;;;;;;6.17;1.51;;;;;;;20.95;54.17;99889.07;;;;-46
2019/09/25 11:19:40;;;;;;;6.16;1.47;;;;;;;20.93;54.12;99886.76;;;;-46
2019/09/25 11:22:40;;;;;;;4.46;1.49;;;;;;;20.92;54.13;99889.75;;;;-47
2019/09/25 11:25:40;;;;;;;3.44;1.39;;;;;;;20.93;54.07;99881.22;;;;-46
2019/09/25 11:28:40;;;;;;;2.87;1.42;;;;;;;20.92;54.07;99870.92;;;;-47
2019/09/25 11:31:40;;;;;;;3.45;1.39;;;;;;;20.92;53.97;99872.46;;;;-47
2019/09/25 11:34:40;;;;;;;2.40;1.34;;;;;;;20.91;54.05;99867.64;;;;-47
2019/09/25 11:39:40;;;;;;;3.47;1.54;;;;;;;20.90;54.00;99865.86;;;;-47
2019/09/25 11:42:40;;;;;;;5.08;1.50;;;;;;;20.91;53.93;99870.92;;;;-47
2019/09/25 11:45:40;;;;;;;2.69;1.30;;;;;;;20.91;53.89;99875.19;;;;-47
2019/09/25 11:48:40;;;;;;;2.03;1.44;;;;;;;20.91;53.85;99872.94;;;;-46
2019/09/25 11:51:40;;;;;;;3.67;1.49;;;;;;;20.89;53.90;99867.84;;;;-45
2019/09/25 11:54:40;;;;;;;8.23;1.51;;;;;;;20.89;53.95;99862.31;;;;-46
2019/09/25 11:57:40;;;;;;;5.31;1.52;;;;;;;20.90;54.08;99864.48;;;;-48
2019/09/25 12:00:40;;;;;;;3.53;1.60;;;;;;;20.90;54.20;99866.00;;;;-44
2019/09/25 12:03:40;;;;;;;7.47;1.60;;;;;;;20.93;54.25;99868.20;;;;-48
2019/09/25 12:06:40;;;;;;;7.33;1.61;;;;;;;20.94;54.37;99866.48;;;;-48
2019/09/25 12:09:40;;;;;;;6.29;1.69;;;;;;;20.96;54.45;99866.27;;;;-47
2019/09/25 12:12:40;;;;;;;6.74;1.88;;;;;;;20.97;54.28;99866.30;;;;-55
2019/09/25 12:15:40;;;;;;;6.79;1.60;;;;;;;20.98;54.30;99871.09;;;;-56
2019/09/25 12:18:40;;;;;;;5.36;1.71;;;;;;;20.98;54.29;99867.17;;;;-55
2019/09/25 12:22:40;;;;;;;4.92;1.82;;;;;;;20.98;54.31;99864.24;;;;-54
2019/09/25 12:25:40;;;;;;;6.19;1.66;;;;;;;20.99;54.41;99859.64;;;;-55
2019/09/25 12:28:40;;;;;;;4.30;1.60;;;;;;;21.00;54.28;99861.02;;;;-58
2019/09/25 12:31:40;;;;;;;6.80;1.70;;;;;;;21.00;54.32;99860.08;;;;-54
2019/09/25 12:34:40;;;;;;;4.87;1.63;;;;;;;21.00;54.34;99861.85;;;;-50
2019/09/25 12:37:40;;;;;;;4.63;1.69;;;;;;;21.01;54.34;99858.19;;;;-47
2019/09/25 12:40:40;;;;;;;4.58;1.54;;;;;;;21.02;54.32;99859.96;;;;-60
2019/09/25 12:43:40;;;;;;;2.90;1.49;;;;;;;21.02;54.33;99861.50;;;;-62
2019/09/25 12:47:40;;;;;;;5.17;1.67;;;;;;;21.03;54.29;99859.25;;;;-54
2019/09/25 12:50:40;;;;;;;3.65;1.48;;;;;;;21.04;54.40;99859.85;;;;-59
2019/09/25 12:53:40;;;;;;;3.99;1.71;;;;;;;21.03;54.41;99860.86;;;;-58
2019/09/25 12:56:40;;;;;;;3.83;1.58;;;;;;;21.04;54.38;99860.25;;;;-62
2019/09/25 12:59:40;;;;;;;4.47;1.58;;;;;;;21.05;54.31;99855.58;;;;-59
2019/09/25 13:02:40;;;;;;;2.54;1.60;;;;;;;21.05;54.37;99857.56;;;;-61
2019/09/25 13:08:40;;;;;;;4.88;1.85;;;;;;;21.06;54.43;99866.13;;;;-56
2019/09/25 13:11:40;;;;;;;3.12;1.61;;;;;;;21.05;54.31;99864.95;;;;-57
2019/09/25 13:14:40;;;;;;;4.72;1.69;;;;;;;21.05;54.22;99859.31;;;;-56
2019/09/25 13:17:40;;;;;;;5.29;1.65;;;;;;;21.06;54.15;99861.66;;;;-56
2019/09/25 13:20:40;;;;;;;8.62;1.88;;;;;;;21.04;54.29;99864.28;;;;-56
2019/09/25 13:23:40;;;;;;;2.93;1.53;;;;;;;21.06;54.30;99874.61;;;;-56
2019/09/25 13:26:40;;;;;;;3.51;1.51;;;;;;;21.06;54.30;99875.22;;;;-57
2019/09/25 13:29:40;;;;;;;2.77;1.58;;;;;;;21.07;54.29;99877.16;;;;-54
2019/09/25 13:32:40;;;;;;;5.69;1.40;;;;;;;21.07;54.31;99874.78;;;;-54
2019/09/25 13:36:40;;;;;;;5.27;1.81;;;;;;;21.08;54.29;99882.20;;;;-61
2019/09/25 13:39:40;;;;;;;5.69;1.82;;;;;;;21.06;54.32;99878.37;;;;-61
2019/09/25 13:42:40;;;;;;;6.40;1.70;;;;;;;21.07;54.17;99887.03;;;;-61
2019/09/25 13:45:40;;;;;;;4.82;1.61;;;;;;;21.06;54.21;99879.98;;;;-61
2019/09/25 13:48:40;;;;;;;4.35;1.72;;;;;;;21.05;54.17;99876.70;;;;-60
2019/09/25 13:51:40;;;;;;;3.90;1.73;;;;;;;21.05;54.09;99879.02;;;;-62
2019/09/25 13:54:40;;;;;;;5.59;1.86;;;;;;;21.05;54.05;99880.13;;;;-61
2019/09/25 13:57:40;;;;;;;3.04;1.53;;;;;;;21.04;54.11;99876.70;;;;-61
2019/09/25 14:00:40;;;;;;;3.94;1.50;;;;;;;21.03;54.06;99874.13;;;;-60
2019/09/25 14:03:40;;;;;;;3.17;1.60;;;;;;;21.03;54.02;99869.50;;;;-61
2019/09/25 14:06:40;;;;;;;3.61;1.53;;;;;;;21.02;54.01;99871.48;;;;-61
2019/09/25 14:09:40;;;;;;;4.47;1.65;;;;;;;21.01;53.97;99869.67;;;;-60
2019/09/25 14:12:40;;;;;;;2.23;1.37;;;;;;;21.01;53.97;99870.01;;;;-60
2019/09/25 14:15:40;;;;;;;3.81;1.69;;;;;;;20.99;53.98;99867.12;;;;-60
2019/09/25 14:19:40;;;;;;;2.39;1.50;;;;;;;20.99;53.98;99857.39;;;;-60
2019/09/25 14:22:40;;;;;;;2.65;1.45;;;;;;;20.98;53.96;99857.59;;;;-61
2019/09/25 14:25:40;;;;;;;6.54;1.55;;;;;;;20.97;53.99;99855.48;;;;-59
2019/09/25 14:28:40;;;;;;;6.37;1.88;;;;;;;21.01;54.39;99866.25;;;;-56
2019/09/25 14:31:40;;;;;;;8.53;1.82;;;;;;;21.02;54.35;99868.29;;;;-57
2019/09/25 14:34:40;;;;;;;11.75;2.06;;;;;;;21.04;54.34;99865.63;;;;-56
2019/09/25 14:37:40;;;;;;;4.61;1.81;;;;;;;21.07;54.52;99868.19;;;;-57
2019/09/25 14:40:40;;;;;;;12.67;1.84;;;;;;;21.08;54.54;99868.70;;;;-57
2019/09/25 14:43:40;;;;;;;10.06;2.05;;;;;;;21.09;54.74;99868.62;;;;-54
2019/09/25 14:46:40;;;;;;;11.63;1.98;;;;;;;21.11;54.50;99869.36;;;;-57
2019/09/25 14:49:40;;;;;;;7.33;1.73;;;;;;;21.11;54.49;99865.76;;;;-58
2019/09/25 14:52:40;;;;;;;11.29;1.87;;;;;;;21.11;54.71;99866.84;;;;-57
2019/09/25 14:55:40;;;;;;;7.22;2.09;;;;;;;21.12;54.53;99864.61;;;;-56
2019/09/25 14:58:40;;;;;;;7.64;1.99;;;;;;;21.12;54.47;99866.96;;;;-57
2019/09/25 15:01:40;;;;;;;8.51;1.89;;;;;;;21.13;54.54;99870.45;;;;-57
2019/09/25 15:04:40;;;;;;;5.55;1.67;;;;;;;21.14;54.70;99870.38;;;;-57
2019/09/25 15:07:40;;;;;;;8.11;1.77;;;;;;;21.14;54.69;99873.16;;;;-55
2019/09/25 15:10:40;;;;;;;7.57;1.68;;;;;;;21.14;54.61;99869.13;;;;-48
2019/09/25 15:13:40;;;;;;;4.95;1.71;;;;;;;21.14;54.48;99872.16;;;;-48
2019/09/25 15:16:43;;;;;;;4.56;1.69;;;;;;;21.14;54.65;99871.55;;;;-44
2019/09/25 15:19:40;;;;;;;5.21;1.85;;;;;;;21.15;54.51;99878.40;;;;-46
2019/09/25 15:22:40;;;;;;;5.27;1.50;;;;;;;21.15;54.42;99874.03;;;;-44
2019/09/25 15:25:40;;;;;;;3.83;1.61;;;;;;;21.14;54.48;99876.25;;;;-47
2019/09/25 15:28:40;;;;;;;4.41;1.80;;;;;;;21.15;54.50;99882.43;;;;-56
2019/09/25 15:31:40;;;;;;;6.08;1.85;;;;;;;21.16;54.45;99881.69;;;;-57
2019/09/25 15:34:40;;;;;;;6.07;1.72;;;;;;;21.16;54.54;99875.47;;;;-54
2019/09/25 15:37:40;;;;;;;4.78;1.58;;;;;;;21.18;54.42;99877.95;;;;-54
2019/09/25 15:40:40;;;;;;;5.55;1.45;;;;;;;21.17;54.74;99879.94;;;;-54
2019/09/25 15:43:40;;;;;;;5.49;1.86;;;;;;;21.16;54.52;99881.28;;;;-53
2019/09/25 15:46:40;;;;;;;5.01;1.69;;;;;;;21.15;54.55;99876.45;;;;-56
2019/09/25 15:49:40;;;;;;;5.01;1.87;;;;;;;21.17;54.52;99884.00;;;;-48
2019/09/25 15:52:40;;;;;;;3.41;1.56;;;;;;;21.18;54.53;99888.69;;;;-49
2019/09/25 15:55:40;;;;;;;3.24;1.49;;;;;;;21.19;54.57;99888.16;;;;-51
2019/09/25 15:58:40;;;;;;;3.69;1.51;;;;;;;21.18;54.56;99885.60;;;;-50
2019/09/25 16:01:40;;;;;;;6.49;1.79;;;;;;;21.17;54.51;99886.52;;;;-52
2019/09/25 16:04:40;;;;;;;4.00;1.57;;;;;;;21.18;54.58;99883.69;;;;-58
2019/09/25 16:07:40;;;;;;;5.09;1.61;;;;;;;21.19;54.51;99887.37;;;;-57
2019/09/25 16:10:40;;;;;;;3.63;1.48;;;;;;;21.19;54.41;99892.41;;;;-58
2019/09/25 16:13:40;;;;;;;5.55;1.76;;;;;;;21.19;54.48;99891.51;;;;-56
2019/09/25 16:16:40;;;;;;;5.19;1.50;;;;;;;21.20;54.44;99891.61;;;;-56
2019/09/25 16:19:40;;;;;;;3.87;1.61;;;;;;;21.20;54.48;99891.70;;;;-58
2019/09/25 16:22:40;;;;;;;4.89;1.59;;;;;;;21.19;54.44;99893.02;;;;-47
2019/09/25 16:25:40;;;;;;;3.32;1.50;;;;;;;21.19;54.48;99892.85;;;;-47
2019/09/25 16:28:40;;;;;;;3.13;1.52;;;;;;;21.20;54.46;99893.89;;;;-46
2019/09/25 16:31:40;;;;;;;3.53;1.55;;;;;;;21.21;54.56;99896.27;;;;-46
2019/09/25 16:34:40;;;;;;;5.21;1.48;;;;;;;21.22;54.51;99901.91;;;;-47
2019/09/25 16:37:40;;;;;;;2.95;1.43;;;;;;;21.22;54.46;99906.61;;;;-45
2019/09/25 16:40:53;;;;;;;2.24;1.29;;;;;;;21.22;54.45;99899.48;;;;-45
2019/09/25 16:43:40;;;;;;;2.95;1.50;;;;;;;21.22;54.47;99897.98;;;;-48
2019/09/25 16:46:40;;;;;;;2.73;1.47;;;;;;;21.22;54.55;99900.33;;;;-49
2019/09/25 16:49:40;;;;;;;3.69;1.66;;;;;;;21.21;54.58;99898.11;;;;-50
2019/09/25 16:52:40;;;;;;;3.45;1.43;;;;;;;21.21;54.52;99897.45;;;;-51
2019/09/25 16:55:40;;;;;;;3.07;1.47;;;;;;;21.22;54.38;99899.66;;;;-47
2019/09/25 16:58:40;;;;;;;3.62;1.63;;;;;;;21.21;54.49;99896.50;;;;-51
2019/09/25 17:01:40;;;;;;;2.54;1.42;;;;;;;21.21;54.40;99893.91;;;;-50
2019/09/25 17:04:40;;;;;;;3.52;1.48;;;;;;;21.20;54.44;99885.16;;;;-50
2019/09/25 17:07:40;;;;;;;2.48;1.37;;;;;;;21.20;54.29;99887.00;;;;-50